Latest METARs, TAFs and NOTAMs for SKCL


---------------------------------------------------------------------------
	(OBSERVATIONS)
SKCL 071200Z 00000KT 9999 FEW040 SCT150 21/19 A2996=
SKCL 071100Z 03003KT 9999 SCT040 SCT120 21/19 A2995=
SKCL 071030Z 04005KT 9999 SCT040 SCT100 21/19 A2995=
SKCL 071000Z 02003KT 9999 SCT050 SCT120 19/18 A2993=
---------------------------------------------------------------------------
	(TERMINAL AREA FORECAST)
SKCL 071100Z 0712/0812 02005KT 9999 FEW020 SCT200
    TEMPO 0714/0718 8000 SCT030
    BECMG 0719/0721 36010KT PROB40 0721/0800 SCT017TCU
    TX34/0719Z
    TN19/0811Z=
---------------------------------------------------------------------------
	(NOTAMS)


SKCL A0102/16 ACFT STAND NR 1 LTD, ONLY ACFT CAT C OR LOWER AUTHORIZED,
    ACFT ENTERING AND EXITING MUST BE TOWED. 10 JAN 22:11 2016
    UNTIL 11 APR 23:59 2016 ESTIMATED. CREATED: 10 JAN 22:15
    2016

SKCL A0182/16 RWY 01/19 CLSD. DLY BTN 0600-1015, 01 MAR 06:00
    2016 UNTIL 20 APR 10:15 2016. CREATED: 19 JAN 19:08 2016

SKCL A0208/16 RWY 01 TURNING BAY LTD, ACFT PROHIBITED PARALLEL
    OR ONE SURPASSES THE OTHER ACFT, EXER CTN. 24 JAN 02:10 2016
    UNTIL 19 APR 23:59 2016. CREATED: 24 JAN 02:12 2016

SKCL A0209/16 TWY A BTN RWY 01 AND TWY B CLSD. 24 JAN 02:10 2016
    UNTIL 19 APR 23:59 2016. CREATED: 24 JAN 02:15 2016

SKCL A0221/16 TRIGGER NOTAM - AIP SUP A03/16 WEF 25JAN16 RUNWAY
    TURNING BAY. 25 JAN 06:20 2016 UNTIL 08 FEB 23:59 2016. CREATED:
    25 JAN 06:21 2016

SKCL A0245/16 INTL APN LTD, RESTRICTED OPS ACFT GEN AVIATION,
    GEN AVIATION WILL BE RELOCATED IN DESCONGESTION APN, CARGO
    APN AND GEN AVIATION. -CREW MUST INFORM TO CECOA WHEN OVERNIGHT
    WILL BE PRETEND AND DEPARTURE DATE TEL. (57) 3155779760 -
    (57-2) 2800111. 01 FEB 00:00 2016 UNTIL 31 MAY 23:59 2016.
    CREATED: 27 JAN 22:24 2016

SKCL A0246/16 TWY A,B,C,C1,C2,D,E,F,G WIP, EXER CTN. H24, 01
    FEB 00:00 2016 UNTIL 31 MAY 23:59 2016. CREATED: 27 JAN 22:39
    2016

SKCL A0247/16 STRIP RWY 01/19 STRIP TWY A,B,C,D,E,F WIP, EXER
    CTN. H24, 01 FEB 00:00 2016 UNTIL 31 MAY 23:59 2016. CREATED:
    27 JAN 22:54 2016

SKCL A0255/16 APRON, CARGO APRON AND DECONGESTION APRON WIP,
    EXER CTN. H24, 01 FEB 23:59 2016 UNTIL 31 MAY 23:59 2016.
    CREATED: 28 JAN 13:32 2016

SKCL A0272/16 TWR LTD, SIGNALLING LAMP U/S. 31 JAN 10:34 2016
    UNTIL 07 FEB 23:59 2016 ESTIMATED. CREATED: 31 JAN 10:36
    2016

SKCL A2845/15 CWY RWY 01/19 INSTL REF AIP COLOMBIA AD 2 SKCL
    2 ITEM 12, AD 2 SKCL ADC. 25 OCT 22:00 2015 UNTIL PERM. CREATED:
    25 OCT 21:45 2015

SKCL A2846/15 DIST DECLARATED RWY 01/19 CHG: RWY TORA TODA ASDA
    LDA 01 3000 3060 3000 3000 19 3000 3060 3000 3000 REF AIP
    COLOMBIA AD 2 SKCL 2 ITEM 13, AD 2 SKCL ADC. 25 OCT 22:00
    2015 UNTIL PERM. CREATED: 25 OCT 21:57 2015

SKCL A2999/15 MOV AREA WO VERTICAL SIGNALING, EXER CTN. 05 NOV
    23:59 2015 UNTIL 29 FEB 23:59 2016. CREATED: 05 NOV 21:31
    2015

SKCL A3136/15 TWR LTD, LOW VIS TO THR 01 DUE TO OBST, EXER CTN.
    H24, 19 NOV 22:38 2015 UNTIL 18 FEB 23:59 2016. CREATED:
    19 NOV 22:40 2015

SKCL A3213/15 OBST INSTL DUE TO WIP, CRANE PRESENCE HGT 30M,
    RDO 50M NXT COORD: 033206.84076N0762312.59357W- 033210.13714N0762312.10406W.
    H24, 26 NOV 13:08 2015 UNTIL 14 FEB 23:59 2016. CREATED:
    26 NOV 13:12 2015

SKCL A3215/15 OBST INSTL DUE TO WIP, CRANE PRESENCE HGT 30M,
    RDO 50M NXT COORD: 033206.84076N0762312.59357W- 033210.13714N0762312.10406W.
    H24, 15 FEB 00:00 2016 UNTIL 15 MAY 23:59 2016. CREATED:
    26 NOV 14:12 2015

SKCL A3216/15 OBST INSTL DUE TO WIP, CRANE PRESENCE HGT 30M,
    RDO 50M NXT COORD: 033206.84076N0762312.59357W- 033210.13714N0762312.10406W.
    H24, 16 MAY 00:00 2016 UNTIL 16 AUG 23:59 2016. CREATED:
    26 NOV 14:16 2015

SKCL A3217/15 OBST INSTL DUE TO WIP, CRANE PRESENCE HGT 30M,
    RDO 50M NXT COORD: 033206.84076N0762312.59357W- 033210.13714N0762312.10406W.
    H24, 17 AUG 00:00 2016 UNTIL 30 NOV 23:59 2016. CREATED:
    26 NOV 14:23 2015

SKCL A3218/15 SEQUENCED FLG LGT RWY 01 U/S. 26 NOV 16:11 2015
    UNTIL 26 FEB 23:59 2016 ESTIMATED. CREATED: 26 NOV 16:13
    2015

SKCL A3224/15 RWY 01/19 CLSD. DLY BTN 0600-1015, 21 APR 06:00
    2016 UNTIL 21 JUL 10:15 2016. CREATED: 26 NOV 17:06 2015

SKCL A3225/15 RWY 01/19 CLSD. DLY BTN 0600-1015, 22 JUL 06:00
    2016 UNTIL 22 OCT 10:15 2016. CREATED: 26 NOV 17:10 2015

SKCL A3226/15 RWY 01/19 CLSD. DLY BTN 0600-1015, 23 OCT 06:00
    2016 UNTIL 28 FEB 10:15 2017. CREATED: 26 NOV 17:19 2015

SKCL A3275/15 ACFT STAND NR 15,16 AUTH ENGINE START. H24, 30
    NOV 18:24 2015 UNTIL 31 MAR 23:59 2016. CREATED: 30 NOV 18:31
    2015

SKCL A3296/15 HELIPORT CLSD TO ALL NGT OPS NOTA: HEL MUST USE
    RWY AND TWYS. 02 DEC 11:55 2015 UNTIL 29 FEB 23:59 2016.
    CREATED: 02 DEC 12:05 2015

SKCL A3523/15 REMOTE ACFT STAND NR 1 INSTL COORD 033209.10N0762310.49W
    AVBL FOR ACFT CAT C OR LOWER. H24, 29 DEC 16:33 2015 UNTIL
    31 MAR 23:59 2016. CREATED: 29 DEC 16:35 2015

SKCL V0025/16 [DOD PROCEDURAL NOTAM] INSTRUMENT APPROACH PROCEDURE
    NOT AUTHORIZED: ILS RWY 01 AMDT 1, VOR RWY 19 ORIG, ANKIN
    5A, 5B, DEPARTURE, BUN 6A DEPARTURE, BUN 6C DEPARTURE NOT
    AUTHORIZED. 04 FEB 23:00 2016 UNTIL 28 APR 23:59 2016. CREATED:
    04 FEB 22:59 2016

---------------------------------------------------------------------------